Time;durP1;ratioP1;P1;durP2;ratioP2;P2;SDS_P1;SDS_P2;PMS_P1;PMS_P2;Temp;Humidity;BMP_temperature;BMP_pressure;BME280_temperature;BME280_humidity;BME280_pressure;Samples;Min_cycle;Max_cycle;Signal;HPM_P1;HPM_P2
2021/10/07 00:00:57;;;;;;;4.68;2.35;;;;;;;15.13;100.00;101041.66;4955246;28;20291;-66
2021/10/07 00:03:23;;;;;;;3.67;1.95;;;;;;;15.13;100.00;101041.66;4986849;28;20045;-70
2021/10/07 00:05:48;;;;;;;3.80;2.03;;;;;;;15.14;100.00;101034.41;4955111;28;20034;-65
2021/10/07 00:08:14;;;;;;;4.38;2.40;;;;;;;15.15;100.00;101022.53;4980306;28;20045;-66
2021/10/07 00:10:40;;;;;;;5.93;2.60;;;;;;;15.09;100.00;101020.63;4980073;28;20048;-67
2021/10/07 00:13:05;;;;;;;4.00;2.05;;;;;;;15.06;100.00;101029.16;4984804;28;20030;-68
2021/10/07 00:15:31;;;;;;;3.65;2.10;;;;;;;15.02;100.00;101017.88;4988435;28;20030;-65
2021/10/07 00:17:57;;;;;;;6.40;1.77;;;;;;;15.01;100.00;101028.91;4988302;28;20392;-67
2021/10/07 00:20:23;;;;;;;6.15;1.67;;;;;;;15.00;100.00;101029.94;4988058;28;20029;-67
2021/10/07 00:22:49;;;;;;;3.72;1.73;;;;;;;15.00;100.00;101029.94;4988686;28;20034;-69
2021/10/07 00:25:16;;;;;;;5.30;1.90;;;;;;;15.01;100.00;101028.91;4990594;28;20065;-65
2021/10/07 00:27:42;;;;;;;2.92;1.65;;;;;;;14.97;100.00;101023.03;4979212;28;20042;-67
2021/10/07 00:30:16;;;;;;;2.33;1.45;;;;;;;15.00;100.00;101019.91;5002707;28;20400;-68
2021/10/07 00:32:53;;;;;;;2.35;1.70;;;;;;;15.03;100.00;101029.53;5004237;28;20030;-68
2021/10/07 00:40:29;;;;;;;2.45;1.27;;;;;;;15.03;100.00;101018.69;4989712;28;20561;-69
2021/10/07 00:42:54;;;;;;;1.98;1.10;;;;;;;15.06;100.00;101023.72;4989608;28;20031;-69
2021/10/07 00:45:20;;;;;;;2.58;0.98;;;;;;;15.04;100.00;101015.78;4985303;28;20043;-66
2021/10/07 00:47:47;;;;;;;2.00;0.98;;;;;;;15.05;100.00;101017.47;4978579;28;20092;-65
2021/10/07 00:50:13;;;;;;;2.20;0.98;;;;;;;15.08;100.00;101013.50;4983227;28;20042;-68
2021/10/07 00:52:39;;;;;;;2.00;1.10;;;;;;;15.09;100.00;101012.50;4968554;28;20496;-68
2021/10/07 00:55:07;;;;;;;2.42;1.20;;;;;;;15.04;100.00;101010.38;5004017;28;20038;-66
2021/10/07 00:57:33;;;;;;;1.63;1.05;;;;;;;14.97;100.00;101008.66;4982580;28;20629;-69
2021/10/07 00:59:58;;;;;;;1.73;0.90;;;;;;;14.89;100.00;101010.47;4991761;28;20077;-66
2021/10/07 01:02:24;;;;;;;1.88;1.10;;;;;;;14.81;100.00;101002.53;4968297;28;20041;-67
2021/10/07 01:04:50;;;;;;;2.50;1.08;;;;;;;14.82;100.00;101008.75;4971778;28;20038;-68
2021/10/07 01:07:16;;;;;;;3.20;1.40;;;;;;;14.91;100.00;101021.13;4969363;28;20084;-65
2021/10/07 01:09:42;;;;;;;2.58;1.00;;;;;;;14.99;100.00;101020.13;4992831;28;20042;-68
2021/10/07 01:12:08;;;;;;;2.65;0.90;;;;;;;15.03;100.00;101024.09;4982013;28;20046;-67
2021/10/07 01:14:57;;;;;;;4.13;0.90;;;;;;;15.07;100.00;101018.09;4989818;28;20042;-67
2021/10/07 01:17:25;;;;;;;1.48;0.70;;;;;;;15.09;100.00;101013.34;4960389;28;20038;-66
2021/10/07 01:19:53;;;;;;;1.80;0.70;;;;;;;15.12;100.00;101020.22;4971079;28;20049;-67
2021/10/07 01:22:21;;;;;;;2.15;0.85;;;;;;;15.13;100.00;101020.00;4988786;28;20494;-66
2021/10/07 01:24:47;;;;;;;3.38;0.70;;;;;;;15.13;100.00;101011.88;4988626;28;20400;-67
2021/10/07 01:27:13;;;;;;;1.00;0.70;;;;;;;15.12;100.00;101004.81;4954300;28;20045;-68
2021/10/07 01:29:40;;;;;;;1.80;0.88;;;;;;;15.09;100.00;100997.09;4966270;28;20400;-68
2021/10/07 01:32:06;;;;;;;1.10;0.77;;;;;;;15.12;100.00;101007.50;4972407;28;20043;-69
2021/10/07 01:34:32;;;;;;;1.08;0.70;;;;;;;15.14;100.00;100996.50;4987178;28;20038;-69
2021/10/07 01:36:59;;;;;;;1.20;0.60;;;;;;;15.12;100.00;100991.25;4986515;28;20026;-64
2021/10/07 01:39:25;;;;;;;0.80;0.63;;;;;;;15.10;100.00;100995.19;4982818;28;20022;-66
2021/10/07 01:41:51;;;;;;;1.25;0.80;;;;;;;15.11;100.00;100996.88;4986758;28;20039;-68
2021/10/07 01:44:20;;;;;;;2.33;0.80;;;;;;;15.07;100.00;100990.19;4954963;28;20381;-67
2021/10/07 01:46:46;;;;;;;0.95;0.57;;;;;;;14.98;100.00;100984.09;4991539;28;20037;-66
2021/10/07 01:49:12;;;;;;;1.50;0.70;;;;;;;14.93;100.00;100992.81;4999843;28;20030;-67
2021/10/07 01:51:38;;;;;;;1.02;0.68;;;;;;;14.92;100.00;100991.16;4986772;28;20089;-66
2021/10/07 01:54:04;;;;;;;1.05;0.80;;;;;;;14.92;100.00;100988.44;4985941;28;20088;-67
2021/10/07 01:56:31;;;;;;;2.60;0.70;;;;;;;14.93;100.00;100975.75;4953774;28;20050;-66
2021/10/07 01:58:58;;;;;;;0.80;0.57;;;;;;;14.94;100.00;100975.53;4968697;28;20053;-65
2021/10/07 02:01:24;;;;;;;2.67;0.75;;;;;;;14.91;100.00;100989.47;4965444;28;20049;-66
2021/10/07 02:03:50;;;;;;;1.52;0.80;;;;;;;14.93;100.00;100990.13;4985555;28;20113;-67
2021/10/07 02:06:15;;;;;;;0.65;0.57;;;;;;;14.93;100.00;100979.28;4984898;28;20970;-70
2021/10/07 02:08:42;;;;;;;1.83;0.60;;;;;;;14.96;100.00;100983.47;4980970;28;20244;-66
2021/10/07 02:11:09;;;;;;;0.63;0.60;;;;;;;15.01;100.00;100986.41;4984148;28;20040;-66
2021/10/07 02:13:34;;;;;;;1.73;0.70;;;;;;;15.00;100.00;100992.00;4984785;28;20472;-67
2021/10/07 02:16:00;;;;;;;1.38;0.70;;;;;;;15.03;100.00;100991.63;4986806;28;20030;-66
2021/10/07 02:18:26;;;;;;;0.98;0.65;;;;;;;15.00;100.00;100981.19;4998789;28;20158;-67
2021/10/07 02:20:53;;;;;;;0.90;0.68;;;;;;;15.07;100.00;100982.06;4983418;28;20094;-68
2021/10/07 02:23:18;;;;;;;0.80;0.57;;;;;;;15.05;100.00;100984.97;4984542;28;20092;-68
2021/10/07 02:25:44;;;;;;;1.85;0.93;;;;;;;15.09;100.00;100974.59;4981927;28;20435;-68
2021/10/07 02:28:10;;;;;;;2.92;1.10;;;;;;;15.08;100.00;100979.16;4982272;28;20048;-67
2021/10/07 02:30:36;;;;;;;1.70;0.65;;;;;;;15.10;100.00;100970.81;4984952;28;20039;-66
2021/10/07 02:33:02;;;;;;;1.50;0.80;;;;;;;15.15;100.00;100973.78;4986624;28;20081;-68
2021/10/07 02:35:27;;;;;;;2.13;0.65;;;;;;;15.17;100.00;100972.53;4983023;28;20038;-67
2021/10/07 02:37:53;;;;;;;1.50;0.80;;;;;;;15.23;100.00;100967.34;4984714;28;20030;-67
2021/10/07 02:40:19;;;;;;;2.75;1.08;;;;;;;15.23;100.00;100960.06;4983835;28;21438;-68
2021/10/07 02:42:45;;;;;;;2.70;1.00;;;;;;;15.28;100.00;100960.28;4982381;28;20033;-66
2021/10/07 02:45:13;;;;;;;2.17;1.05;;;;;;;15.32;100.00;100966.13;4973623;28;20130;-68
2021/10/07 02:47:39;;;;;;;2.50;1.42;;;;;;;15.33;100.00;100960.53;4983408;28;20073;-70
2021/10/07 02:50:07;;;;;;;2.78;0.90;;;;;;;15.34;100.00;100951.34;4965009;28;20506;-69
2021/10/07 02:52:33;;;;;;;2.13;0.90;;;;;;;15.41;100.00;100961.41;4985361;28;20057;-68
2021/10/07 02:54:59;;;;;;;1.55;0.90;;;;;;;15.42;100.00;100969.31;4992459;28;20034;-66
2021/10/07 02:57:24;;;;;;;1.67;0.80;;;;;;;15.45;100.00;100959.94;4957442;28;20042;-66
2021/10/07 02:59:50;;;;;;;1.77;0.80;;;;;;;15.47;100.00;100963.28;4958783;28;20034;-68
2021/10/07 03:02:16;;;;;;;2.33;1.23;;;;;;;15.45;100.00;100959.94;4990241;28;20038;-67
2021/10/07 03:04:45;;;;;;;1.52;1.30;;;;;;;15.41;100.00;100948.69;4968221;28;20046;-68
2021/10/07 03:07:11;;;;;;;1.48;0.85;;;;;;;15.44;100.00;100950.16;4988237;28;20081;-66
2021/10/07 03:09:41;;;;;;;1.88;0.98;;;;;;;15.43;100.00;100948.44;4975659;28;20037;-66
2021/10/07 03:12:07;;;;;;;2.08;1.00;;;;;;;15.42;100.00;100952.22;4994243;28;20508;-67
2021/10/07 03:14:34;;;;;;;1.73;0.85;;;;;;;15.44;100.00;100950.16;4968987;28;20041;-70
2021/10/07 03:16:59;;;;;;;2.47;0.85;;;;;;;15.44;100.00;100947.44;4985819;28;20043;-68
2021/10/07 03:19:25;;;;;;;2.25;0.93;;;;;;;15.52;100.00;100948.09;4989081;28;20031;-67
2021/10/07 03:21:51;;;;;;;1.83;1.00;;;;;;;15.59;100.00;100948.13;4983159;28;20046;-68
2021/10/07 03:24:17;;;;;;;2.15;1.10;;;;;;;15.62;100.00;100950.41;4989182;28;20040;-66
2021/10/07 03:26:43;;;;;;;1.77;1.08;;;;;;;15.65;100.00;100946.47;4994770;28;20039;-68
2021/10/07 03:29:08;;;;;;;1.33;0.65;;;;;;;15.68;99.82;100955.00;4954709;28;20184;-69
2021/10/07 03:31:34;;;;;;;1.92;0.90;;;;;;;15.72;99.84;100958.19;4973613;28;20037;-65
2021/10/07 03:34:00;;;;;;;1.20;0.90;;;;;;;15.74;99.94;100962.34;4989601;28;20516;-66
2021/10/07 03:36:26;;;;;;;1.67;0.70;;;;;;;15.71;99.70;100954.63;4989588;28;20031;-67
2021/10/07 03:38:52;;;;;;;1.88;0.77;;;;;;;15.77;99.67;100961.09;4985889;28;20101;-67
2021/10/07 03:41:18;;;;;;;1.77;0.80;;;;;;;15.78;99.43;100947.34;4992426;28;20487;-66
2021/10/07 03:43:44;;;;;;;2.47;1.00;;;;;;;15.81;99.52;100952.34;4988396;28;20042;-67
2021/10/07 03:46:09;;;;;;;1.75;0.90;;;;;;;15.83;99.49;100952.16;4986163;28;20399;-67
2021/10/07 03:48:35;;;;;;;2.17;1.00;;;;;;;15.83;99.72;100958.41;4985718;28;20037;-67
2021/10/07 03:51:01;;;;;;;2.50;0.82;;;;;;;15.87;99.80;100961.53;5003014;28;20038;-65
2021/10/07 03:53:27;;;;;;;2.50;1.00;;;;;;;15.89;99.83;100950.50;5001634;28;20034;-68
2021/10/07 03:55:54;;;;;;;4.22;0.90;;;;;;;15.91;99.75;100954.69;4988524;28;20088;-65
2021/10/07 03:58:20;;;;;;;2.10;1.10;;;;;;;15.90;99.95;100950.28;4954909;28;20034;-68
2021/10/07 04:00:45;;;;;;;1.65;0.90;;;;;;;15.95;99.64;100953.19;4971870;28;20498;-68
2021/10/07 04:03:11;;;;;;;2.03;1.00;;;;;;;15.97;99.57;100961.97;4987945;28;20077;-67
2021/10/07 04:05:37;;;;;;;4.35;1.05;;;;;;;15.97;99.49;100961.16;4962990;28;20041;-69
2021/10/07 04:08:04;;;;;;;1.48;0.82;;;;;;;15.99;99.62;100961.78;4971864;28;20034;-67
2021/10/07 04:10:33;;;;;;;1.52;0.82;;;;;;;16.00;99.52;100971.56;4988761;28;20034;-67
2021/10/07 04:12:59;;;;;;;1.23;0.93;;;;;;;15.98;99.75;100958.25;4986094;28;20034;-68
2021/10/07 04:15:24;;;;;;;3.08;0.90;;;;;;;15.98;99.70;100960.09;4957425;28;20491;-69
2021/10/07 04:17:51;;;;;;;1.38;0.60;;;;;;;16.00;99.67;100966.16;4990587;28;20038;-66
2021/10/07 04:20:17;;;;;;;2.28;0.80;;;;;;;15.99;99.85;100962.63;4986741;28;20034;-67
2021/10/07 04:22:43;;;;;;;1.55;0.65;;;;;;;15.98;99.46;100951.97;4954385;28;20041;-68
2021/10/07 04:25:09;;;;;;;2.17;0.90;;;;;;;16.04;99.63;100962.00;5005100;28;20034;-68
2021/10/07 04:27:35;;;;;;;1.50;0.70;;;;;;;16.02;99.85;100956.78;4974479;28;20377;-67
2021/10/07 04:30:03;;;;;;;1.67;0.90;;;;;;;16.04;99.36;100949.28;4987630;28;20080;-66
2021/10/07 04:32:29;;;;;;;1.40;0.70;;;;;;;16.05;99.48;100950.09;4991143;28;20136;-67
2021/10/07 04:34:55;;;;;;;3.35;0.85;;;;;;;16.04;99.56;100940.31;4970223;28;20121;-68
2021/10/07 04:37:20;;;;;;;1.63;0.80;;;;;;;16.03;99.56;100947.59;4954168;28;20038;-66
2021/10/07 04:39:46;;;;;;;1.27;0.80;;;;;;;16.01;99.50;100933.41;4973538;28;20054;-68
2021/10/07 04:42:12;;;;;;;1.75;1.00;;;;;;;16.05;99.58;100945.50;4966410;28;20046;-68
2021/10/07 04:44:38;;;;;;;1.27;0.70;;;;;;;16.01;99.58;100943.44;4960882;28;20081;-70
2021/10/07 04:47:05;;;;;;;1.80;0.63;;;;;;;16.05;99.76;100947.38;4988690;28;20030;-68
2021/10/07 04:49:31;;;;;;;1.50;0.85;;;;;;;16.05;99.61;100948.22;4969586;28;20096;-66
2021/10/07 04:51:56;;;;;;;2.38;0.88;;;;;;;16.03;99.79;100944.03;4971147;28;20035;-65
2021/10/07 04:54:23;;;;;;;1.88;0.70;;;;;;;16.04;99.73;100938.41;4973097;28;20455;-67
2021/10/07 04:56:49;;;;;;;3.75;0.73;;;;;;;16.04;99.49;100938.41;4999139;28;20564;-68
2021/10/07 04:59:15;;;;;;;1.25;0.60;;;;;;;16.06;99.88;100943.63;4984931;28;20034;-69
2021/10/07 05:01:40;;;;;;;1.40;0.50;;;;;;;16.09;99.83;100948.66;4966742;28;20035;-71
2021/10/07 05:04:06;;;;;;;1.45;0.70;;;;;;;16.08;99.44;100946.13;4953299;28;20056;-69
2021/10/07 05:06:32;;;;;;;1.92;0.80;;;;;;;16.05;99.59;100945.50;4955475;28;20468;-68
2021/10/07 05:08:57;;;;;;;2.08;0.60;;;;;;;16.11;99.55;100946.53;5006614;28;20507;-67
2021/10/07 05:11:23;;;;;;;1.02;0.90;;;;;;;16.11;99.67;100946.53;4990006;28;20432;-66
2021/10/07 05:13:50;;;;;;;1.67;0.50;;;;;;;16.11;99.86;100949.25;4989094;28;20484;-66
2021/10/07 05:16:16;;;;;;;1.98;0.60;;;;;;;16.12;99.51;100942.81;4971248;28;20042;-67
2021/10/07 05:18:41;;;;;;;1.35;0.50;;;;;;;16.13;99.73;100958.03;4981905;28;20034;-67
2021/10/07 05:21:07;;;;;;;1.58;0.60;;;;;;;16.11;99.62;100951.97;4985262;28;20038;-65
2021/10/07 05:23:35;;;;;;;1.48;0.80;;;;;;;16.11;99.51;100951.97;4985854;28;20038;-67
2021/10/07 05:26:02;;;;;;;2.65;0.70;;;;;;;16.11;99.59;100956.56;4978948;28;20120;-66
2021/10/07 05:28:28;;;;;;;1.33;0.70;;;;;;;16.03;99.51;100950.28;4970749;28;20046;-67
2021/10/07 05:30:54;;;;;;;1.20;0.60;;;;;;;16.09;99.68;100956.78;4986575;28;20033;-68
2021/10/07 05:33:21;;;;;;;1.23;0.60;;;;;;;16.10;99.79;100955.75;4957316;28;20076;-65
2021/10/07 05:35:48;;;;;;;3.22;1.08;;;;;;;16.08;99.81;100955.09;4989852;28;20093;-67
2021/10/07 05:38:15;;;;;;;0.88;0.60;;;;;;;16.07;99.85;100944.47;5002344;28;20038;-65
2021/10/07 05:40:40;;;;;;;2.10;0.80;;;;;;;16.07;99.68;100953.44;4987811;28;20026;-66
2021/10/07 05:43:11;;;;;;;3.13;0.75;;;;;;;16.07;99.83;100939.88;4973527;28;20045;-65
2021/10/07 05:45:37;;;;;;;2.70;1.02;;;;;;;16.07;99.98;100948.03;4949465;28;20078;-68
2021/10/07 05:48:04;;;;;;;1.10;0.50;;;;;;;16.07;99.93;100947.19;4956070;28;20065;-66
2021/10/07 05:50:29;;;;;;;1.65;0.60;;;;;;;16.07;99.66;100950.72;4961570;28;20039;-69
2021/10/07 05:52:55;;;;;;;1.88;0.65;;;;;;;16.07;99.53;100948.03;4976598;28;20037;-66
2021/10/07 05:55:21;;;;;;;1.90;0.80;;;;;;;16.09;99.62;100956.78;4981620;28;20451;-66
2021/10/07 05:57:46;;;;;;;2.47;0.80;;;;;;;16.09;99.50;100954.09;4951430;28;20534;-68
2021/10/07 06:00:13;;;;;;;1.00;0.60;;;;;;;16.08;99.33;100952.38;4945391;28;20034;-66
2021/10/07 06:02:39;;;;;;;0.98;0.60;;;;;;;16.09;99.25;100955.94;4982409;28;20037;-65
2021/10/07 06:05:05;;;;;;;2.42;1.23;;;;;;;16.07;99.51;100950.72;4982410;28;20038;-68
2021/10/07 06:07:32;;;;;;;0.68;0.50;;;;;;;16.12;99.26;100959.09;4985311;28;20462;-68
2021/10/07 06:09:58;;;;;;;2.38;0.80;;;;;;;16.13;99.52;100960.75;4969974;28;20396;-65
2021/10/07 06:12:24;;;;;;;1.30;0.65;;;;;;;16.12;99.33;100950.13;4970740;28;20038;-67
2021/10/07 06:14:50;;;;;;;1.13;0.60;;;;;;;16.15;99.33;100960.56;4970182;28;20049;-66
2021/10/07 06:17:16;;;;;;;1.25;0.55;;;;;;;16.13;99.10;100955.31;4988553;28;20034;-67
2021/10/07 06:19:44;;;;;;;2.70;0.70;;;;;;;16.15;99.20;100947.00;4953849;28;20088;-66
2021/10/07 06:22:10;;;;;;;2.67;0.75;;;;;;;16.13;99.13;100951.78;4975734;28;20042;-68
2021/10/07 06:24:36;;;;;;;1.73;0.70;;;;;;;16.17;99.25;100951.16;4988014;28;20041;-66
2021/10/07 06:27:02;;;;;;;1.80;1.17;;;;;;;16.18;99.19;100947.41;4987919;28;20030;-67
2021/10/07 06:29:28;;;;;;;2.60;0.70;;;;;;;16.18;98.99;100949.28;4956108;28;20066;-68
2021/10/07 06:31:54;;;;;;;1.27;0.60;;;;;;;16.15;99.13;100942.38;4956637;28;20085;-66
2021/10/07 06:34:19;;;;;;;1.33;0.50;;;;;;;16.15;99.17;100947.81;4984620;28;20116;-68
2021/10/07 06:36:45;;;;;;;1.17;0.60;;;;;;;16.20;98.97;100950.75;4985317;28;20030;-68
2021/10/07 06:39:11;;;;;;;1.73;0.80;;;;;;;16.21;99.06;100952.41;4956483;28;20037;-67
2021/10/07 06:41:37;;;;;;;2.67;0.80;;;;;;;16.22;98.75;100950.50;4956693;28;20030;-67
2021/10/07 06:44:03;;;;;;;1.65;0.77;;;;;;;16.24;98.74;100956.56;4953981;28;20469;-67
2021/10/07 06:46:29;;;;;;;1.08;0.63;;;;;;;16.25;98.46;100956.38;4956292;28;20511;-67
2021/10/07 06:48:55;;;;;;;1.08;0.70;;;;;;;16.24;98.35;100962.81;4988365;28;20034;-67
2021/10/07 06:51:25;;;;;;;1.10;0.65;;;;;;;16.25;98.61;100971.81;4957093;28;20037;-67
2021/10/07 06:53:56;;;;;;;1.27;0.80;;;;;;;16.25;98.43;100969.94;4956244;28;20038;-66
2021/10/07 06:56:22;;;;;;;1.77;0.70;;;;;;;16.26;98.28;100968.06;4970795;28;20050;-66
2021/10/07 06:58:55;;;;;;;4.00;1.77;;;;;;;16.24;98.12;100970.13;4949407;28;20125;-67
2021/10/07 07:01:25;;;;;;;1.73;0.70;;;;;;;16.23;98.29;100963.88;4954271;28;20456;-66
2021/10/07 07:03:53;;;;;;;3.53;1.30;;;;;;;16.24;98.27;100968.25;4971527;28;20129;-70
2021/10/07 07:06:20;;;;;;;2.05;1.05;;;;;;;16.25;98.18;100974.53;4972857;28;20030;-66
2021/10/07 07:08:46;;;;;;;2.20;1.30;;;;;;;16.21;98.13;100974.09;4972656;28;20037;-65
2021/10/07 07:11:12;;;;;;;2.85;1.63;;;;;;;16.17;98.29;100970.16;4968417;28;20046;-66
2021/10/07 07:13:39;;;;;;;2.38;1.52;;;;;;;16.16;98.45;100971.19;4988461;28;20082;-68
2021/10/07 07:16:04;;;;;;;2.95;2.13;;;;;;;16.17;98.65;100972.88;4970254;28;20046;-69
2021/10/07 07:18:30;;;;;;;2.50;0.93;;;;;;;16.18;98.83;100977.22;4988726;28;20092;-67
2021/10/07 07:20:56;;;;;;;1.58;1.00;;;;;;;16.20;98.79;100983.28;4955656;28;20058;-66
2021/10/07 07:23:22;;;;;;;1.17;0.70;;;;;;;16.19;98.82;100975.34;4987404;28;20038;-65
2021/10/07 07:25:47;;;;;;;2.05;1.13;;;;;;;16.22;98.85;100981.22;4955399;28;20035;-65
2021/10/07 07:28:13;;;;;;;2.22;1.10;;;;;;;16.21;98.89;100970.56;4996292;28;20085;-70
2021/10/07 07:30:39;;;;;;;1.75;0.75;;;;;;;16.24;98.97;100973.69;4971472;28;20034;-70
2021/10/07 07:33:05;;;;;;;0.50;0.50;;;;;;;16.29;98.60;100980.38;4972926;28;20495;-71
2021/10/07 07:35:32;;;;;;;1.55;0.60;;;;;;;16.30;98.61;100985.59;4954097;28;20034;-66
2021/10/07 07:38:05;;;;;;;1.65;0.80;;;;;;;16.32;98.45;100991.63;4953154;28;20476;-70
2021/10/07 07:40:33;;;;;;;0.80;0.60;;;;;;;16.36;98.53;100989.38;4972625;28;20542;-69
2021/10/07 07:42:59;;;;;;;1.23;0.77;;;;;;;16.37;98.57;100994.56;4956854;28;20045;-68
2021/10/07 07:45:25;;;;;;;1.77;0.80;;;;;;;16.38;98.50;100984.53;4987857;28;20380;-66
2021/10/07 07:47:52;;;;;;;4.20;0.95;;;;;;;16.42;98.32;100991.22;4975162;28;20050;-67
2021/10/07 07:50:18;;;;;;;2.20;0.90;;;;;;;16.44;98.39;100994.59;4985044;28;20035;-68
2021/10/07 07:52:46;;;;;;;1.30;0.80;;;;;;;16.44;98.15;100995.41;4988073;28;20069;-66
2021/10/07 07:55:12;;;;;;;4.05;1.25;;;;;;;16.52;98.20;100991.66;4954154;28;20427;-65
2021/10/07 07:57:39;;;;;;;2.58;1.10;;;;;;;16.64;97.51;101000.81;4987313;28;20034;-68
2021/10/07 08:00:05;;;;;;;2.83;0.95;;;;;;;17.05;96.32;100988.06;4990473;28;20045;-68
2021/10/07 08:02:32;;;;;;;2.28;0.60;;;;;;;16.97;95.97;101000.00;4966793;28;20047;-68
2021/10/07 08:05:00;;;;;;;0.80;0.50;;;;;;;16.89;96.10;101002.94;4984713;28;20052;-68
2021/10/07 08:07:27;;;;;;;1.13;0.70;;;;;;;16.82;96.49;100996.66;4986801;28;20049;-66
2021/10/07 08:09:53;;;;;;;1.55;0.60;;;;;;;16.81;96.10;101000.44;4987667;28;20082;-68
2021/10/07 08:12:19;;;;;;;2.33;0.70;;;;;;;16.82;96.09;101002.09;4970770;28;20041;-67
2021/10/07 08:14:47;;;;;;;2.97;0.75;;;;;;;16.82;96.17;100996.66;4953750;28;20038;-66
2021/10/07 08:17:14;;;;;;;0.93;0.63;;;;;;;16.89;95.88;101002.94;4990852;28;20480;-69
2021/10/07 08:19:40;;;;;;;1.23;0.70;;;;;;;16.97;95.50;101000.00;4974346;28;20034;-68
2021/10/07 08:22:06;;;;;;;1.10;0.80;;;;;;;17.10;94.92;101010.00;4985456;28;20042;-65
2021/10/07 08:24:32;;;;;;;1.65;0.80;;;;;;;17.33;93.93;101004.91;4967888;28;20042;-67
2021/10/07 08:27:00;;;;;;;1.70;0.80;;;;;;;17.69;92.32;100994.50;4961730;28;20073;-66
2021/10/07 08:29:25;;;;;;;1.83;0.70;;;;;;;18.30;90.27;100998.53;4974214;28;20109;-67
2021/10/07 08:31:53;;;;;;;2.38;0.70;;;;;;;19.42;86.05;101009.41;4985304;28;20480;-67
2021/10/07 08:34:19;;;;;;;2.35;0.85;;;;;;;19.95;83.54;101003.28;4987850;28;20070;-69
2021/10/07 08:36:46;;;;;;;2.25;0.90;;;;;;;20.76;80.04;101006.44;4958057;28;20077;-66
2021/10/07 08:39:17;;;;;;;2.47;1.02;;;;;;;20.59;79.91;101007.16;4955501;28;20101;-68
2021/10/07 08:41:47;;;;;;;1.27;0.70;;;;;;;21.20;77.70;101013.19;4974306;28;20093;-67
2021/10/07 08:44:15;;;;;;;2.53;0.90;;;;;;;20.54;79.15;101009.75;4963700;28;20100;-67
2021/10/07 08:46:45;;;;;;;3.97;1.38;;;;;;;19.97;80.59;101017.53;4968380;28;20415;-69
2021/10/07 08:49:15;;;;;;;2.85;1.23;;;;;;;19.68;81.72;101014.56;4957924;28;20042;-68
2021/10/07 08:51:44;;;;;;;2.28;1.30;;;;;;;19.52;82.17;101017.91;4986286;28;20026;-66
2021/10/07 08:54:11;;;;;;;3.63;1.05;;;;;;;19.51;82.56;101016.25;4991681;28;20087;-67
2021/10/07 08:56:37;;;;;;;2.97;1.83;;;;;;;19.40;83.18;101017.00;4957800;28;20041;-67
2021/10/07 08:59:04;;;;;;;3.38;1.88;;;;;;;19.11;84.24;101012.09;4973922;28;20511;-66
2021/10/07 09:01:36;;;;;;;2.40;1.25;;;;;;;18.95;84.86;101022.75;4987034;28;20038;-66
2021/10/07 09:04:25;;;;;;;4.13;1.58;;;;;;;18.91;85.03;101029.69;4986382;28;20121;-65
2021/10/07 09:07:08;;;;;;;3.40;1.10;;;;;;;19.03;84.66;101027.91;4957689;28;20568;-67
2021/10/07 09:09:38;;;;;;;4.32;1.50;;;;;;;19.06;84.73;101024.72;5001288;28;20038;-66
2021/10/07 09:12:15;;;;;;;3.80;1.75;;;;;;;18.88;85.37;101029.06;4970694;28;20129;-65
2021/10/07 09:14:46;;;;;;;2.83;1.58;;;;;;;18.93;85.30;101028.41;4967276;28;20030;-70
2021/10/07 09:17:16;;;;;;;2.15;1.20;;;;;;;19.03;84.73;101033.34;4989415;28;20512;-66
2021/10/07 09:19:44;;;;;;;4.90;1.20;;;;;;;19.21;84.17;101033.38;4987989;28;20258;-67
2021/10/07 09:22:22;;;;;;;5.20;1.10;;;;;;;19.28;83.63;101025.94;4955019;28;20038;-66
2021/10/07 09:24:59;;;;;;;2.83;0.90;;;;;;;19.37;83.44;101034.66;4984398;28;20039;-65
2021/10/07 09:27:33;;;;;;;2.90;1.27;;;;;;;19.32;83.79;101032.63;4984767;28;20067;-66
2021/10/07 09:30:05;;;;;;;4.25;1.40;;;;;;;19.29;83.61;101033.06;4993663;28;20038;-66
2021/10/07 09:32:32;;;;;;;4.57;1.48;;;;;;;19.39;83.37;101042.59;4974745;28;20045;-67
2021/10/07 09:35:00;;;;;;;3.08;1.33;;;;;;;19.45;82.77;101039.81;4957306;28;20038;-68
2021/10/07 09:37:33;;;;;;;2.72;0.98;;;;;;;19.55;82.69;101039.25;4958196;28;20034;-68
2021/10/07 09:40:02;;;;;;;4.32;1.25;;;;;;;19.64;82.04;101039.81;4995899;28;20037;-66
2021/10/07 09:42:36;;;;;;;3.35;1.63;;;;;;;19.55;82.38;101051.03;4968956;28;20550;-66
2021/10/07 09:45:04;;;;;;;2.45;1.10;;;;;;;19.32;83.06;101050.88;4967277;28;20056;-71
2021/10/07 09:47:38;;;;;;;4.38;1.20;;;;;;;18.96;84.33;101049.75;4987369;28;20038;-66
2021/10/07 09:50:16;;;;;;;4.20;1.20;;;;;;;18.79;85.05;101068.56;4988945;28;20041;-67
2021/10/07 09:52:43;;;;;;;3.13;1.48;;;;;;;18.54;86.06;101068.50;5006654;28;20030;-67
2021/10/07 09:55:14;;;;;;;4.32;1.30;;;;;;;18.29;87.62;101073.09;4949513;28;20047;-67
2021/10/07 09:58:02;;;;;;;3.90;1.20;;;;;;;18.06;89.10;101068.22;4979124;28;20996;-67
2021/10/07 10:00:30;;;;;;;6.10;1.20;;;;;;;17.87;90.05;101065.38;4977529;28;20041;-66
2021/10/07 10:02:58;;;;;;;4.53;1.00;;;;;;;17.84;90.71;101070.41;4980916;28;20026;-66
2021/10/07 10:05:25;;;;;;;2.92;1.15;;;;;;;17.87;90.41;101073.53;4982040;28;20053;-67
2021/10/07 10:07:51;;;;;;;3.15;1.30;;;;;;;17.91;90.02;101076.66;4983861;28;20030;-68
2021/10/07 10:10:17;;;;;;;5.07;1.20;;;;;;;17.94;89.72;101078.94;4979898;28;20030;-70
2021/10/07 10:12:43;;;;;;;4.22;1.10;;;;;;;17.96;89.32;101083.09;4980760;28;20049;-67
2021/10/07 10:15:10;;;;;;;6.25;1.30;;;;;;;18.00;88.94;101081.63;4979277;28;20038;-65
2021/10/07 10:17:37;;;;;;;2.80;1.10;;;;;;;18.05;88.95;101081.00;4980206;28;20511;-67
2021/10/07 10:20:23;;;;;;;4.40;1.08;;;;;;;18.11;88.63;101071.13;4969119;28;20022;-68
2021/10/07 10:22:54;;;;;;;3.75;1.10;;;;;;;18.29;88.10;101084.00;4980100;28;20113;-68
2021/10/07 10:25:21;;;;;;;3.03;1.20;;;;;;;18.41;87.42;101076.78;4948447;28;20057;-67
2021/10/07 10:27:48;;;;;;;5.90;1.73;;;;;;;18.50;86.97;101080.91;4981294;28;20041;-67
2021/10/07 10:30:19;;;;;;;5.47;1.13;;;;;;;18.64;86.32;101084.38;4979640;28;20089;-67
2021/10/07 10:32:44;;;;;;;5.68;1.20;;;;;;;18.78;85.64;101082.41;4980803;28;20030;-68
2021/10/07 10:35:36;;;;;;;2.63;1.10;;;;;;;19.02;84.44;101080.72;4980626;28;20072;-67
2021/10/07 10:38:03;;;;;;;;;;;;;;;18.97;84.38;101078.66;4981985;28;20074;-66
2021/10/07 10:40:29;;;;;;;1.90;0.80;;;;;;;18.94;84.31;101081.00;4981102;28;19998;-65
2021/10/07 10:43:16;;;;;;;2.45;0.98;;;;;;;19.04;83.68;101084.06;4978465;28;20125;-66
2021/10/07 10:46:05;;;;;;;3.67;1.20;;;;;;;19.29;82.92;101087.59;4983365;28;20062;-67
2021/10/07 10:48:49;;;;;;;4.15;1.35;;;;;;;19.41;82.73;101095.03;4979521;28;20128;-66
2021/10/07 10:51:16;;;;;;;3.72;1.30;;;;;;;19.55;82.35;101088.34;4977966;28;20484;-68
2021/10/07 10:54:10;;;;;;;4.90;1.25;;;;;;;19.62;81.89;101085.56;4978857;28;20420;-65
2021/10/07 10:56:57;;;;;;;3.42;1.05;;;;;;;19.94;80.33;101092.53;4967651;28;20133;-66
2021/10/07 10:59:25;;;;;;;1.98;0.95;;;;;;;20.07;79.60;101093.44;4984305;28;20085;-67
2021/10/07 11:02:21;;;;;;;3.78;1.40;;;;;;;20.24;79.13;101096.34;4977360;28;20496;-68
2021/10/07 11:04:48;;;;;;;2.33;1.13;;;;;;;20.28;78.86;101094.81;4973346;28;20476;-67
2021/10/07 11:07:23;;;;;;;2.05;1.02;;;;;;;20.47;78.13;101088.22;4951557;28;20050;-66
2021/10/07 11:10:13;;;;;;;6.10;1.20;;;;;;;20.62;77.65;101091.38;4981501;28;20034;-68
2021/10/07 11:12:44;;;;;;;1.95;0.90;;;;;;;20.54;76.96;101089.00;4979999;28;20393;-67
2021/10/07 11:15:11;;;;;;;4.32;1.00;;;;;;;20.30;78.02;101085.31;4984009;28;21760;-67
2021/10/07 11:17:40;;;;;;;2.47;1.08;;;;;;;20.28;78.14;101083.91;4985917;28;20041;-66
2021/10/07 11:20:08;;;;;;;5.80;1.08;;;;;;;20.34;77.75;101088.41;4986982;28;20030;-67
2021/10/07 11:22:33;;;;;;;2.22;0.80;;;;;;;20.37;77.24;101075.13;4955767;28;20039;-68
2021/10/07 11:24:59;;;;;;;1.55;0.73;;;;;;;20.27;77.69;101091.25;4986522;28;20042;-66
2021/10/07 11:27:36;;;;;;;1.30;0.70;;;;;;;20.25;78.15;101095.28;4967718;28;20046;-66
2021/10/07 11:30:04;;;;;;;2.50;1.15;;;;;;;20.29;77.69;101083.66;4982224;28;20030;-69
2021/10/07 11:32:30;;;;;;;2.40;0.88;;;;;;;20.39;77.43;101094.00;4998839;28;20045;-67